createdAt,value
2019-04-03T00:01:44.049Z,99941.47
2019-04-03T00:04:15.438Z,99942.09
2019-04-03T00:06:46.643Z,99938.47
2019-04-03T00:09:17.887Z,99939.86
2019-04-03T00:11:49.650Z,99932.47
2019-04-03T00:14:20.930Z,99934.29
2019-04-03T00:16:52.169Z,99934.20
2019-04-03T00:19:23.424Z,99932.52
2019-04-03T00:21:54.670Z,99931.33
2019-04-03T00:24:25.931Z,99926.15
2019-04-03T00:26:57.148Z,99938.02
2019-04-03T00:29:28.384Z,99929.23
2019-04-03T00:31:59.718Z,99930.48
2019-04-03T00:34:30.941Z,99927.91
2019-04-03T00:37:02.190Z,99930.84
2019-04-03T00:39:34.572Z,99933.55
2019-04-03T00:42:05.859Z,99925.86
2019-04-03T00:44:37.159Z,99928.47
2019-04-03T00:47:08.385Z,99926.06
2019-04-03T00:49:39.648Z,99918.97
2019-04-03T00:52:10.898Z,99928.05
2019-04-03T00:54:42.178Z,99929.09
2019-04-03T00:57:13.387Z,99922.25
2019-04-03T00:59:44.701Z,99923.35
2019-04-03T01:02:16.461Z,99923.77
2019-04-03T01:04:48.292Z,99932.03
2019-04-03T01:07:19.519Z,99928.58
2019-04-03T01:09:50.889Z,99927.81
2019-04-03T01:12:22.124Z,99935.50
2019-04-03T01:14:53.350Z,99932.31
2019-04-03T01:17:24.800Z,99923.84
2019-04-03T01:19:56.169Z,99929.62
2019-04-03T01:22:27.391Z,99936.69
2019-04-03T01:24:58.636Z,99932.42
2019-04-03T01:27:29.904Z,99936.68
2019-04-03T01:30:01.132Z,99943.08
2019-04-03T01:32:33.907Z,99935.92
2019-04-03T01:35:05.876Z,99940.66
2019-04-03T01:37:37.070Z,99934.92
2019-04-03T01:40:08.363Z,99928.02
2019-04-03T01:42:39.595Z,99934.23
2019-04-03T01:45:10.884Z,99928.28
2019-04-03T01:47:42.159Z,99933.72
2019-04-03T01:50:13.535Z,99931.04
2019-04-03T01:52:44.693Z,99929.98
2019-04-03T01:55:15.850Z,99933.75
2019-04-03T01:57:47.230Z,99924.83
2019-04-03T02:00:18.406Z,99921.70
2019-04-03T02:02:49.688Z,99920.55
2019-04-03T02:05:20.969Z,99924.80
2019-04-03T02:07:52.222Z,99922.64
2019-04-03T02:10:23.450Z,99920.23
2019-04-03T02:12:54.712Z,99922.64
2019-04-03T02:15:26.091Z,99922.91
2019-04-03T02:17:57.523Z,99927.94
2019-04-03T02:20:28.718Z,99925.16
2019-04-03T02:23:00.590Z,99920.70
2019-04-03T02:25:32.325Z,99919.00
2019-04-03T02:28:04.532Z,99918.59
2019-04-03T02:30:36.194Z,99916.72
2019-04-03T02:33:07.461Z,99923.90
2019-04-03T02:35:40.082Z,99914.43
2019-04-03T02:38:12.848Z,99923.38
2019-04-03T02:40:44.079Z,99917.91
2019-04-03T02:43:15.570Z,99913.94
2019-04-03T02:45:47.052Z,99918.27
2019-04-03T02:48:18.292Z,99915.89
2019-04-03T02:50:49.667Z,99916.77
2019-04-03T02:53:21.092Z,99911.00
2019-04-03T02:55:52.336Z,99910.13
2019-04-03T02:58:23.579Z,99911.63
2019-04-03T03:00:54.807Z,99911.48
2019-04-03T03:03:26.077Z,99916.67
2019-04-03T03:06:00.672Z,99916.17
2019-04-03T03:08:30.873Z,99914.27
2019-04-03T03:11:03.396Z,99916.51
2019-04-03T03:13:35.607Z,99909.86
2019-04-03T03:16:07.069Z,99913.95
2019-04-03T03:18:38.282Z,99915.14
2019-04-03T03:21:12.834Z,99916.08
2019-04-03T03:23:43.533Z,99907.47
2019-04-03T03:26:14.770Z,99914.09
2019-04-03T03:28:47.440Z,99921.59
2019-04-03T03:31:19.539Z,99919.88
2019-04-03T03:33:51.224Z,99921.59
2019-04-03T03:36:25.471Z,99920.88
2019-04-03T03:38:55.472Z,99921.45
2019-04-03T03:41:26.669Z,99916.19
2019-04-03T03:43:58.395Z,99917.33
2019-04-03T03:46:29.544Z,99920.70
2019-04-03T03:49:02.000Z,99927.54
2019-04-03T03:51:33.250Z,99927.20
2019-04-03T03:54:04.475Z,99927.95
2019-04-03T03:56:36.765Z,99924.66
2019-04-03T03:59:08.154Z,99931.75
2019-04-03T04:01:39.480Z,99932.66
2019-04-03T04:04:14.263Z,99916.23
2019-04-03T04:06:43.805Z,99926.35
2019-04-03T04:09:17.228Z,99933.80
2019-04-03T04:11:47.868Z,99925.10
2019-04-03T04:14:22.521Z,99937.96
2019-04-03T04:16:52.224Z,99926.43
2019-04-03T04:19:23.599Z,99929.91
2019-04-03T04:21:55.104Z,99933.47
2019-04-03T04:24:28.035Z,99933.03
2019-04-03T04:26:59.303Z,99942.77
2019-04-03T04:29:32.191Z,99935.98
2019-04-03T04:32:03.413Z,99940.34
2019-04-03T04:34:34.718Z,99943.47
2019-04-03T04:37:05.889Z,99938.35
2019-04-03T04:39:37.072Z,99942.22
2019-04-03T04:42:08.239Z,99941.44
2019-04-03T04:44:41.211Z,99942.59
2019-04-03T04:47:14.550Z,99933.81
2019-04-03T04:49:45.754Z,99948.53
2019-04-03T04:52:17.525Z,99936.64
2019-04-03T04:54:48.841Z,99935.22
2019-04-03T04:57:20.113Z,99935.92
2019-04-03T04:59:51.407Z,99929.91
2019-04-03T05:02:22.628Z,99932.44
2019-04-03T05:04:56.081Z,99934.80
2019-04-03T05:07:28.854Z,99942.58
2019-04-03T05:10:02.195Z,99928.45
2019-04-03T05:12:34.589Z,99930.07
2019-04-03T05:15:06.740Z,99930.91
2019-04-03T05:17:38.383Z,99942.13
2019-04-03T05:20:09.713Z,99934.65
2019-04-03T05:22:41.056Z,99933.88
2019-04-03T05:25:12.289Z,99936.75
2019-04-03T05:27:43.673Z,99939.81
2019-04-03T05:30:28.946Z,99938.46
2019-04-03T05:33:00.673Z,99942.00
2019-04-03T05:35:31.873Z,99937.97
2019-04-03T05:38:03.301Z,99932.47
2019-04-03T05:40:35.450Z,99930.30
2019-04-03T05:43:06.673Z,99930.47
2019-04-03T05:45:40.707Z,99930.28
2019-04-03T05:48:13.355Z,99927.28
2019-04-03T05:50:44.065Z,99928.11
2019-04-03T05:53:15.550Z,99924.11
2019-04-03T05:55:47.081Z,99926.09
2019-04-03T05:58:19.696Z,99929.20
2019-04-03T06:01:03.615Z,99935.30
2019-04-03T06:03:37.651Z,99926.45
2019-04-03T06:05:58.040Z,99925.11
2019-04-03T06:08:30.140Z,99933.33
2019-04-03T06:11:03.453Z,99925.95
2019-04-03T06:13:35.443Z,99932.37
2019-04-03T06:16:06.707Z,99935.02
2019-04-03T06:18:37.940Z,99934.20
2019-04-03T06:21:09.416Z,99931.80
2019-04-03T06:23:40.772Z,99935.65
2019-04-03T06:26:12.285Z,99933.02
2019-04-03T06:28:46.316Z,99935.97
2019-04-03T06:31:16.746Z,99940.68
2019-04-03T06:33:50.899Z,99941.51
2019-04-03T06:36:20.998Z,99940.37
2019-04-03T06:38:52.178Z,99940.73
2019-04-03T06:41:23.900Z,99937.53
2019-04-03T06:43:55.387Z,99940.86
2019-04-03T06:46:28.475Z,99939.15
2019-04-03T06:48:59.557Z,99937.94
2019-04-03T06:51:30.734Z,99937.00
2019-04-03T06:54:02.084Z,99939.66
2019-04-03T06:56:33.336Z,99946.05
2019-04-03T06:59:04.566Z,99941.08
2019-04-03T07:01:36.024Z,99955.02
2019-04-03T07:04:16.226Z,99936.05
2019-04-03T10:55:08.259Z,99825.57
2019-04-03T10:57:39.471Z,99829.36
2019-04-03T11:00:12.316Z,99824.58
2019-04-03T11:02:43.559Z,99832.79
2019-04-03T11:05:15.114Z,99816.47
2019-04-03T11:07:46.356Z,99819.77
2019-04-03T11:10:17.716Z,99812.11
2019-04-03T11:12:49.033Z,99807.76
2019-04-03T11:15:38.972Z,99800.08
2019-04-03T11:18:21.107Z,99813.88
2019-04-03T11:20:52.912Z,99789.21
2019-04-03T11:23:36.559Z,99794.53
2019-04-03T11:25:57.340Z,99803.60
2019-04-03T11:28:28.542Z,99791.89
2019-04-03T11:31:01.173Z,99785.42
2019-04-03T11:33:34.047Z,99786.10
2019-04-03T11:36:05.474Z,99792.70
2019-04-03T11:38:36.702Z,99775.38
2019-04-03T11:41:18.328Z,99776.50
2019-04-03T11:43:46.848Z,99782.70
2019-04-03T11:46:18.485Z,99779.28
2019-04-03T11:48:49.877Z,99768.48
2019-04-03T11:51:21.098Z,99765.78
2019-04-03T11:53:52.484Z,99759.11
2019-04-03T11:56:23.928Z,99765.81
2019-04-03T11:58:55.372Z,99762.88
2019-04-03T12:01:28.821Z,99760.05
2019-04-03T12:04:01.046Z,99767.27
2019-04-03T12:06:32.418Z,99756.98
2019-04-03T12:09:05.561Z,99752.81
2019-04-03T12:11:38.728Z,99762.31
2019-04-03T12:14:10.094Z,99747.93
2019-04-03T12:16:42.733Z,99754.03
2019-04-03T12:19:13.954Z,99749.85
2019-04-03T12:21:45.097Z,99750.17
2019-04-03T12:24:16.450Z,99755.04
2019-04-03T12:26:47.792Z,99744.66
2019-04-03T12:29:21.484Z,99736.28
2019-04-03T12:31:52.406Z,99741.13
2019-04-03T12:34:23.901Z,99733.05
2019-04-03T12:36:55.280Z,99735.58
2019-04-03T12:39:27.850Z,99734.64
2019-04-03T12:41:59.607Z,99740.31
2019-04-03T12:44:30.989Z,99742.22
2019-04-03T12:47:03.047Z,99739.53
2019-04-03T12:49:35.134Z,99738.75
2019-04-03T12:52:06.640Z,99738.38
2019-04-03T12:54:38.053Z,99734.39
2019-04-03T12:57:09.419Z,99736.52
2019-04-03T12:59:40.865Z,99742.94
2019-04-03T13:02:13.752Z,99739.58
2019-04-03T13:04:45.194Z,99739.59
2019-04-03T13:07:16.429Z,99746.82
2019-04-03T13:09:47.770Z,99745.37
2019-04-03T13:12:22.115Z,99739.25
2019-04-03T13:14:51.975Z,99749.27
2019-04-03T13:17:23.527Z,99751.27
2019-04-03T13:19:55.205Z,99753.23
2019-04-03T13:22:27.970Z,99753.38
2019-04-03T13:24:59.654Z,99755.15
2019-04-03T13:27:31.764Z,99754.86
2019-04-03T13:30:11.953Z,99751.60
2019-04-03T13:32:42.281Z,99749.77
2019-04-03T13:35:16.002Z,99752.81
2019-04-03T13:37:46.528Z,99751.94
2019-04-03T13:40:17.879Z,99753.53
2019-04-03T13:42:49.632Z,99748.55
2019-04-03T13:45:21.496Z,99750.42
2019-04-03T13:47:53.281Z,99744.06
2019-04-03T13:50:24.797Z,99741.96
2019-04-03T13:52:56.125Z,99752.05
2019-04-03T13:55:28.889Z,99750.75
2019-04-03T13:58:00.741Z,99750.83
2019-04-03T14:00:33.891Z,99751.09
2019-04-03T14:03:05.770Z,99752.28
2019-04-03T14:05:37.200Z,99749.87
2019-04-03T14:08:08.533Z,99754.82
2019-04-03T14:10:39.857Z,99752.84
2019-04-03T14:13:12.430Z,99756.55
2019-04-03T14:15:43.976Z,99751.83
2019-04-03T14:18:15.391Z,99757.38
2019-04-03T14:20:47.030Z,99752.91
2019-04-03T14:23:18.040Z,99747.92
2019-04-03T14:25:49.269Z,99757.53
2019-04-03T14:28:20.886Z,99756.79
2019-04-03T14:30:52.243Z,99754.52
2019-04-03T14:33:25.559Z,99751.77
2019-04-03T14:35:56.740Z,99750.73
2019-04-03T14:38:29.054Z,99760.37
2019-04-03T14:41:00.811Z,99754.99
2019-04-03T14:43:33.679Z,99766.93
2019-04-03T14:46:05.039Z,99760.30
2019-04-03T14:48:36.405Z,99763.59
2019-04-03T14:51:10.868Z,99759.56
2019-04-03T14:53:41.213Z,99762.09
2019-04-03T14:56:12.784Z,99766.22
2019-04-03T14:58:44.059Z,99759.36
2019-04-03T15:01:15.446Z,99760.62
2019-04-03T15:03:46.838Z,99756.38
2019-04-03T15:06:18.214Z,99760.19
2019-04-03T15:08:49.531Z,99766.68
2019-04-03T15:11:21.973Z,99761.80
2019-04-03T15:13:53.460Z,99753.73
2019-04-03T15:16:24.782Z,99750.30
2019-04-03T15:18:56.019Z,99762.75
2019-04-03T15:21:27.519Z,99751.64
2019-04-03T15:23:58.831Z,99757.87
2019-04-03T15:26:30.433Z,99756.63
2019-04-03T15:29:02.277Z,99756.34
2019-04-03T15:31:33.661Z,99756.94
2019-04-03T15:34:05.982Z,99759.41
2019-04-03T15:36:37.727Z,99760.58
2019-04-03T15:39:10.865Z,99768.94
2019-04-03T15:41:42.796Z,99762.80
2019-04-03T15:44:13.501Z,99761.53
2019-04-03T15:46:44.896Z,99764.37
2019-04-03T15:49:16.422Z,99768.86
2019-04-03T15:51:47.907Z,99773.48
2019-04-03T15:54:21.351Z,99770.69
2019-04-03T15:56:52.994Z,99773.72
2019-04-03T15:59:24.132Z,99774.45
2019-04-03T16:01:55.226Z,99768.12
2019-04-03T16:04:27.067Z,99772.64
2019-04-03T16:07:01.232Z,99771.58
2019-04-03T16:09:33.612Z,99772.08
2019-04-03T16:12:06.484Z,99779.82
2019-04-03T16:14:37.849Z,99786.30
2019-04-03T16:17:09.025Z,99778.49
2019-04-03T16:19:40.866Z,99780.27
2019-04-03T16:22:13.646Z,99793.04
2019-04-03T16:24:45.187Z,99803.64
2019-04-03T16:27:16.478Z,99812.40
2019-04-03T16:29:48.143Z,99804.72
2019-04-03T16:32:19.681Z,99805.38
2019-04-03T16:34:50.923Z,99804.39
2019-04-03T16:37:22.769Z,99812.41
2019-04-03T16:39:54.871Z,99818.28
2019-04-03T16:42:26.294Z,99812.75
2019-04-03T16:44:58.384Z,99813.70
2019-04-03T16:47:30.204Z,99814.75
2019-04-03T16:50:01.523Z,99821.08
2019-04-03T16:52:35.834Z,99829.25
2019-04-03T16:55:06.734Z,99828.75
2019-04-03T16:57:38.238Z,99829.73
2019-04-03T17:00:10.349Z,99831.25
2019-04-03T17:02:41.778Z,99831.09
2019-04-03T17:05:13.404Z,99840.77
2019-04-03T17:07:45.070Z,99836.09
2019-04-03T17:10:16.463Z,99839.09
2019-04-03T17:12:50.107Z,99830.88
2019-04-03T17:15:21.421Z,99837.56
2019-04-03T17:17:52.706Z,99845.64
2019-04-03T17:20:24.764Z,99846.58
2019-04-03T17:22:56.086Z,99847.01
2019-04-03T17:25:33.179Z,99845.40
2019-04-03T17:28:05.786Z,99847.05
2019-04-03T17:30:33.397Z,99840.63
2019-04-03T17:33:04.754Z,99844.62
2019-04-03T17:35:36.461Z,99849.63
2019-04-03T17:38:07.920Z,99847.36
2019-04-03T17:40:39.267Z,99847.20
2019-04-03T17:43:12.825Z,99844.17
2019-04-03T17:45:46.136Z,99851.14
2019-04-03T17:48:16.473Z,99849.56
2019-04-03T17:50:48.688Z,99846.02
2019-04-03T17:53:19.920Z,99847.26
2019-04-03T17:55:51.483Z,99847.58
2019-04-03T17:58:22.716Z,99843.98
2019-04-03T18:00:54.195Z,99848.27
2019-04-03T18:03:25.565Z,99845.39
2019-04-03T18:05:57.557Z,99845.41
2019-04-03T18:08:28.201Z,99845.41
2019-04-03T18:10:59.318Z,99845.95
2019-04-03T18:13:30.665Z,99840.25
2019-04-03T18:16:03.105Z,99838.80
2019-04-03T18:18:34.457Z,99832.14
2019-04-03T18:21:05.844Z,99829.42
2019-04-03T18:23:37.178Z,99832.61
2019-04-03T18:26:08.553Z,99824.61
2019-04-03T18:28:39.943Z,99830.68
2019-04-03T18:31:11.842Z,99834.86
2019-04-03T18:33:44.365Z,99838.47
2019-04-03T18:36:16.774Z,99830.54
2019-04-03T18:38:49.235Z,99833.83
2019-04-03T18:41:20.570Z,99834.69
2019-04-03T18:43:54.167Z,99834.47
2019-04-03T18:46:31.957Z,99833.83
2019-04-03T18:49:01.609Z,99837.77
2019-04-03T18:51:32.383Z,99835.94
2019-04-03T18:54:03.702Z,99846.08
2019-04-03T18:56:35.078Z,99847.05
2019-04-03T18:59:06.528Z,99846.47
2019-04-03T19:01:38.100Z,99843.41
2019-04-03T19:04:09.524Z,99848.14
2019-04-03T19:06:42.958Z,99842.72
2019-04-03T19:09:16.252Z,99843.27
2019-04-03T19:11:47.586Z,99840.70
2019-04-03T19:14:27.154Z,99845.86
2019-04-03T19:16:54.465Z,99844.19
2019-04-03T19:19:26.574Z,99843.03
2019-04-03T19:21:57.878Z,99843.25
2019-04-03T19:24:29.240Z,99839.41
2019-04-03T19:27:02.176Z,99848.52
2019-04-03T19:29:33.911Z,99845.16
2019-04-03T19:32:06.872Z,99841.95
2019-04-03T19:34:38.252Z,99842.50
2019-04-03T19:37:09.597Z,99837.88
2019-04-03T19:42:13.320Z,99834.25
2019-04-03T19:44:46.948Z,99828.16
2019-04-03T19:47:19.504Z,99831.47
2019-04-03T19:49:50.890Z,99835.20
2019-04-03T19:52:22.236Z,99829.88
2019-04-03T19:54:53.515Z,99839.79
2019-04-03T19:57:24.928Z,99833.48
2019-04-03T19:59:58.001Z,99829.88
2019-04-03T20:02:30.457Z,99831.07
2019-04-03T20:05:01.806Z,99831.17
2019-04-03T20:07:33.178Z,99830.03
2019-04-03T20:10:07.226Z,99832.92
2019-04-03T20:12:38.710Z,99829.48
2019-04-03T20:15:11.248Z,99832.54
2019-04-03T20:17:42.619Z,99835.44
2019-04-03T20:20:14.033Z,99834.63
2019-04-03T20:22:45.438Z,99835.05
2019-04-03T20:25:16.763Z,99833.90
2019-04-03T20:27:51.376Z,99836.89
2019-04-03T20:30:21.203Z,99840.35
2019-04-03T20:32:52.555Z,99836.05
2019-04-03T20:35:23.922Z,99842.73
2019-04-03T20:37:57.148Z,99833.45
2019-04-03T20:40:28.301Z,99842.17
2019-04-03T20:43:01.370Z,99836.59
2019-04-03T20:45:32.777Z,99839.31
2019-04-03T20:48:04.095Z,99836.66
2019-04-03T20:50:37.738Z,99834.84
2019-04-03T20:53:09.848Z,99834.45
2019-04-03T20:55:41.223Z,99834.96
2019-04-03T20:58:12.570Z,99840.57
2019-04-03T21:00:43.904Z,99840.64
2019-04-03T21:03:15.298Z,99836.78
2019-04-03T21:05:48.534Z,99832.55
2019-04-03T21:08:19.651Z,99831.27
2019-04-03T21:10:51.021Z,99825.55
2019-04-03T21:13:22.517Z,99830.67
2019-04-03T21:15:54.947Z,99825.28
2019-04-03T21:18:26.296Z,99825.30
2019-04-03T21:21:01.381Z,99823.68
2019-04-03T21:23:33.496Z,99826.84
2019-04-03T21:26:06.820Z,99828.10
2019-04-03T21:28:40.782Z,99822.56
2019-04-03T21:31:11.082Z,99829.77
2019-04-03T21:33:44.923Z,99821.09
2019-04-03T21:36:15.499Z,99825.23
2019-04-03T21:38:46.822Z,99818.58
2019-04-03T21:41:20.498Z,99824.70
2019-04-03T21:43:51.210Z,99827.11
2019-04-03T21:46:22.552Z,99822.09
2019-04-03T21:48:53.938Z,99832.09
2019-04-03T21:51:25.222Z,99830.69
2019-04-03T21:53:56.666Z,99824.82
2019-04-03T21:56:28.004Z,99827.40
2019-04-03T21:58:59.348Z,99824.45
2019-04-03T22:01:30.734Z,99821.56
2019-04-03T22:04:02.098Z,99820.75
2019-04-03T22:06:33.451Z,99823.82
2019-04-03T22:09:08.061Z,99818.91
2019-04-03T22:11:39.588Z,99822.12
2019-04-03T22:14:11.602Z,99823.16
2019-04-03T22:16:43.054Z,99816.44
2019-04-03T22:19:14.405Z,99817.98
2019-04-03T22:21:45.793Z,99818.39
2019-04-03T22:24:17.132Z,99821.87
2019-04-03T22:26:48.415Z,99817.06
2019-04-03T22:29:20.443Z,99813.66
2019-04-03T22:31:54.419Z,99810.34
2019-04-03T22:34:25.166Z,99811.41
2019-04-03T22:36:56.501Z,99812.45
2019-04-03T22:39:27.847Z,99809.80
2019-04-03T22:41:59.098Z,99811.92
2019-04-03T22:44:30.464Z,99812.05
2019-04-03T22:47:02.367Z,99808.34
2019-04-03T22:49:33.981Z,99809.81
2019-04-03T22:52:06.882Z,99803.67
2019-04-03T22:54:38.578Z,99806.53
2019-04-03T22:57:09.817Z,99805.78
2019-04-03T22:59:41.172Z,99809.81
2019-04-03T23:02:13.826Z,99803.97
2019-04-03T23:04:46.347Z,99807.62
2019-04-03T23:07:20.597Z,99808.03
2019-04-03T23:09:50.679Z,99805.72
2019-04-03T23:12:22.026Z,99796.99
2019-04-03T23:14:53.417Z,99797.70
2019-04-03T23:17:24.882Z,99791.70
2019-04-03T23:19:56.250Z,99789.92
2019-04-03T23:22:27.495Z,99784.84
2019-04-03T23:24:59.531Z,99783.52
2019-04-03T23:27:32.981Z,99779.78
2019-04-03T23:30:06.069Z,99782.39
2019-04-03T23:32:37.419Z,99786.52
2019-04-03T23:35:08.774Z,99784.42
2019-04-03T23:37:41.146Z,99783.92
2019-04-03T23:40:12.498Z,99779.80
2019-04-03T23:42:43.747Z,99779.88
2019-04-03T23:45:14.961Z,99772.83
2019-04-03T23:47:46.980Z,99774.09
2019-04-03T23:50:19.993Z,99778.07
2019-04-03T23:52:51.969Z,99770.99
2019-04-03T23:55:23.294Z,99768.23
2019-04-03T23:57:54.586Z,99767.57
